createdAt,value
2023-02-11T00:01:33.811Z,22.67
2023-02-11T00:04:01.086Z,22.40
2023-02-11T00:06:29.557Z,21.45
2023-02-11T00:08:56.983Z,21.30
2023-02-11T00:11:31.258Z,22.90
2023-02-11T00:14:00.796Z,21.05
2023-02-11T00:16:28.004Z,20.13
2023-02-11T00:18:54.802Z,19.70
2023-02-11T00:21:24.406Z,20.00
2023-02-11T00:23:51.691Z,20.83
2023-02-11T00:26:21.702Z,18.17
2023-02-11T00:28:49.325Z,17.70
2023-02-11T00:31:18.044Z,20.05
2023-02-11T00:33:45.516Z,20.17
2023-02-11T00:36:16.371Z,17.92
2023-02-11T00:38:44.639Z,19.30
2023-02-11T00:41:13.022Z,19.65
2023-02-11T00:43:40.558Z,20.05
2023-02-11T00:46:08.507Z,19.30
2023-02-11T00:48:35.421Z,19.42
2023-02-11T00:51:04.081Z,19.42
2023-02-11T00:53:31.493Z,17.33
2023-02-11T00:55:58.209Z,11.75
2023-02-11T00:58:25.022Z,18.35
2023-02-11T01:00:52.080Z,17.08
2023-02-11T01:03:18.661Z,16.58
2023-02-11T01:05:45.331Z,17.42
2023-02-11T01:08:12.338Z,16.55
2023-02-11T01:10:38.928Z,16.88
2023-02-11T01:13:06.494Z,17.17
2023-02-11T01:15:33.615Z,17.25
2023-02-11T01:18:00.311Z,17.73
2023-02-11T01:20:28.342Z,18.48
2023-02-11T01:22:54.904Z,15.70
2023-02-11T01:25:21.584Z,15.98
2023-02-11T01:27:48.155Z,16.33
2023-02-11T01:30:15.371Z,15.13
2023-02-11T01:32:41.944Z,15.13
2023-02-11T01:35:08.654Z,16.45
2023-02-11T01:37:36.163Z,16.70
2023-02-11T01:40:05.709Z,15.50
2023-02-11T01:42:33.336Z,15.98
2023-02-11T01:45:21.751Z,17.33
2023-02-11T01:47:48.397Z,17.05
2023-02-11T01:50:15.105Z,17.08
2023-02-11T01:52:42.600Z,16.25
2023-02-11T01:55:31.254Z,17.63
2023-02-11T01:58:02.243Z,17.45
2023-02-11T02:00:36.481Z,16.75
2023-02-11T02:03:20.156Z,15.82
2023-02-11T02:06:10.814Z,16.75
2023-02-11T02:08:57.580Z,17.35
2023-02-11T02:11:24.325Z,16.52
2023-02-11T02:13:50.960Z,16.67
2023-02-11T02:16:20.001Z,16.10
2023-02-11T02:18:57.566Z,15.82
2023-02-11T02:21:39.658Z,13.68
2023-02-11T02:24:24.825Z,16.08
2023-02-11T02:27:00.595Z,16.23
2023-02-11T02:29:53.109Z,15.57
2023-02-11T02:32:49.547Z,16.27
2023-02-11T02:35:42.448Z,15.02
2023-02-11T02:38:15.653Z,14.48
2023-02-11T02:41:00.003Z,14.05
2023-02-11T02:43:27.687Z,13.82
2023-02-11T02:45:55.309Z,14.77
2023-02-11T02:48:30.127Z,13.35
2023-02-11T02:51:40.497Z,13.75
2023-02-11T02:54:40.988Z,14.02
2023-02-11T02:57:41.310Z,12.80
2023-02-11T03:00:32.975Z,12.88
2023-02-11T03:03:10.792Z,13.70
2023-02-11T03:05:54.532Z,12.93
2023-02-11T03:08:48.984Z,13.88
2023-02-11T03:11:19.018Z,13.02
2023-02-11T03:13:47.700Z,13.60
2023-02-11T03:16:19.786Z,14.23
2023-02-11T03:19:17.025Z,12.95
2023-02-11T03:21:44.981Z,12.05
2023-02-11T03:24:17.196Z,12.70
2023-02-11T03:26:49.232Z,13.25
2023-02-11T03:29:27.236Z,13.45
2023-02-11T03:32:06.738Z,13.15
2023-02-11T03:34:40.449Z,12.63
2023-02-11T03:37:21.752Z,13.77
2023-02-11T03:40:20.072Z,11.73
2023-02-11T03:42:58.328Z,13.02
2023-02-11T03:45:26.435Z,12.80
2023-02-11T03:48:01.196Z,11.32
2023-02-11T03:50:31.654Z,12.95
2023-02-11T03:53:01.235Z,12.25
2023-02-11T03:55:29.830Z,11.45
2023-02-11T03:57:56.885Z,12.02
2023-02-11T04:00:34.155Z,12.02
2023-02-11T04:03:00.975Z,12.00
2023-02-11T04:05:27.587Z,13.10
2023-02-11T04:07:54.162Z,12.50
2023-02-11T04:10:20.892Z,12.77
2023-02-11T04:12:47.622Z,12.80
2023-02-11T04:15:14.200Z,12.75
2023-02-11T04:17:41.200Z,12.05
2023-02-11T04:20:08.506Z,11.43
2023-02-11T04:22:35.485Z,12.82
2023-02-11T04:25:02.087Z,13.32
2023-02-11T04:27:28.640Z,11.40
2023-02-11T04:29:55.267Z,11.90
2023-02-11T04:32:21.900Z,11.52
2023-02-11T04:34:48.846Z,11.57
2023-02-11T04:37:15.515Z,12.70
2023-02-11T04:39:42.129Z,11.15
2023-02-11T04:42:08.886Z,11.63
2023-02-11T04:44:35.532Z,10.65
2023-02-11T04:47:02.173Z,11.88
2023-02-11T04:49:28.904Z,10.40
2023-02-11T04:51:55.643Z,10.82
2023-02-11T04:54:22.451Z,12.45
2023-02-11T04:56:49.658Z,12.20
2023-02-11T04:59:16.378Z,11.48
2023-02-11T05:01:43.001Z,12.13
2023-02-11T05:04:09.607Z,13.10
2023-02-11T05:06:39.501Z,12.75
2023-02-11T05:09:06.119Z,13.80
2023-02-11T05:11:32.792Z,13.20
2023-02-11T05:13:59.392Z,13.93
2023-02-11T05:16:25.971Z,13.20
2023-02-11T05:18:53.678Z,14.00
2023-02-11T05:21:20.383Z,13.93
2023-02-11T05:23:47.236Z,13.35
2023-02-11T05:26:14.578Z,13.68
2023-02-11T05:28:41.864Z,12.80
2023-02-11T05:31:09.238Z,13.95
2023-02-11T05:33:36.410Z,12.93
2023-02-11T05:36:06.094Z,11.18
2023-02-11T05:38:33.482Z,13.70
2023-02-11T05:41:00.562Z,13.25
2023-02-11T05:43:27.328Z,14.52
2023-02-11T05:45:54.596Z,14.48
2023-02-11T05:48:21.349Z,13.30
2023-02-11T05:50:47.989Z,13.13
2023-02-11T05:53:14.591Z,13.65
2023-02-11T05:55:41.335Z,14.15
2023-02-11T05:58:07.979Z,14.50
2023-02-11T06:00:34.995Z,14.32
2023-02-11T06:03:02.039Z,14.48
2023-02-11T06:05:28.670Z,14.68
2023-02-11T06:07:55.341Z,14.70
2023-02-11T06:10:21.960Z,16.20
2023-02-11T06:12:48.571Z,14.52
2023-02-11T06:15:15.163Z,15.65
2023-02-11T06:17:41.724Z,15.40
2023-02-11T06:20:10.470Z,16.90
2023-02-11T06:22:37.042Z,14.98
2023-02-11T06:25:04.072Z,15.05
2023-02-11T06:27:31.059Z,16.42
2023-02-11T06:29:57.706Z,15.18
2023-02-11T06:32:42.776Z,16.55
2023-02-11T06:35:12.115Z,17.10
2023-02-11T06:37:39.867Z,17.70
2023-02-11T06:40:06.984Z,16.40
2023-02-11T06:42:34.487Z,17.08
2023-02-11T06:45:01.287Z,17.85
2023-02-11T06:47:27.872Z,17.33
2023-02-11T06:49:54.450Z,18.20
2023-02-11T06:52:21.066Z,17.25
2023-02-11T06:54:47.753Z,16.75
2023-02-11T06:57:14.408Z,18.00
2023-02-11T06:59:41.539Z,17.80
2023-02-11T07:02:10.565Z,16.25
2023-02-11T07:04:37.283Z,17.35
2023-02-11T07:07:03.905Z,16.85
2023-02-11T07:09:30.482Z,16.25
2023-02-11T07:11:57.104Z,19.27
2023-02-11T07:14:23.723Z,17.75
2023-02-11T07:16:50.308Z,17.83
2023-02-11T07:19:17.155Z,17.55
2023-02-11T07:21:43.724Z,18.08
2023-02-11T07:24:11.238Z,17.33
2023-02-11T07:26:38.135Z,18.05
2023-02-11T07:29:04.734Z,19.30
2023-02-11T07:31:32.169Z,18.50
2023-02-11T07:34:00.930Z,18.23
2023-02-11T07:36:29.233Z,19.80
2023-02-11T07:38:55.902Z,18.40
2023-02-11T07:41:24.413Z,18.88
2023-02-11T07:43:51.591Z,18.92
2023-02-11T07:46:21.358Z,17.00
2023-02-11T07:48:48.173Z,19.00
2023-02-11T07:51:17.651Z,18.90
2023-02-11T07:53:45.047Z,19.75
2023-02-11T07:56:14.145Z,16.10
2023-02-11T07:58:44.159Z,19.75
2023-02-11T08:01:16.406Z,18.75
2023-02-11T08:03:43.200Z,19.35
2023-02-11T08:06:15.322Z,20.27
2023-02-11T08:08:42.746Z,18.48
2023-02-11T08:11:14.881Z,19.02
2023-02-11T08:13:42.149Z,19.30
2023-02-11T08:16:09.079Z,19.33
2023-02-11T08:18:36.498Z,25.27
2023-02-11T08:21:10.501Z,26.08
2023-02-11T08:23:39.145Z,21.23
2023-02-11T08:26:08.832Z,17.83
2023-02-11T08:28:37.940Z,20.40
2023-02-11T08:31:20.079Z,18.45
2023-02-11T08:33:47.734Z,18.35
2023-02-11T08:36:17.373Z,19.75
2023-02-11T08:38:44.586Z,19.33
2023-02-11T08:41:14.749Z,20.20
2023-02-11T08:43:42.199Z,17.27
2023-02-11T08:46:11.748Z,18.63
2023-02-11T08:48:38.469Z,18.73
2023-02-11T08:51:10.036Z,18.67
2023-02-11T08:53:37.342Z,17.90
2023-02-11T08:56:04.164Z,20.02
2023-02-11T08:58:30.899Z,20.27
2023-02-11T09:00:57.635Z,18.92
2023-02-11T09:03:24.464Z,18.63
2023-02-11T09:05:53.183Z,19.38
2023-02-11T09:08:20.871Z,18.70
2023-02-11T09:10:47.719Z,18.58
2023-02-11T09:13:14.431Z,17.00
2023-02-11T09:15:44.468Z,18.90
2023-02-11T09:18:11.052Z,17.52
2023-02-11T09:20:37.878Z,18.15
2023-02-11T09:23:04.532Z,18.15
2023-02-11T09:25:31.121Z,17.98
2023-02-11T09:27:57.705Z,18.35
2023-02-11T09:30:24.331Z,18.02
2023-02-11T09:32:51.003Z,19.40
2023-02-11T09:35:17.709Z,21.70
2023-02-11T09:37:44.321Z,22.08
2023-02-11T09:40:11.132Z,28.88
2023-02-11T09:43:05.652Z,40.63
2023-02-11T09:45:32.640Z,40.38
2023-02-11T09:48:20.006Z,21.98
2023-02-11T09:50:54.212Z,18.35
2023-02-11T09:53:25.492Z,17.48
2023-02-11T09:55:59.576Z,19.75
2023-02-11T09:58:35.704Z,15.85
2023-02-11T10:01:22.811Z,16.90
2023-02-11T10:04:01.944Z,13.23
2023-02-11T10:06:44.676Z,18.42
2023-02-11T10:09:33.999Z,17.30
2023-02-11T10:12:15.517Z,16.63
2023-02-11T10:15:22.528Z,18.25
2023-02-11T10:18:22.041Z,17.08
2023-02-11T10:21:03.586Z,19.10
2023-02-11T10:23:36.414Z,14.93
2023-02-11T10:26:30.975Z,16.63
2023-02-11T10:29:44.114Z,19.00
2023-02-11T10:32:36.356Z,19.27
2023-02-11T10:35:21.527Z,19.00
2023-02-11T10:40:32.510Z,18.77
2023-02-11T10:43:44.871Z,18.17
2023-02-11T10:46:22.528Z,17.90
2023-02-11T10:48:53.065Z,18.55
2023-02-11T10:51:30.280Z,19.17
2023-02-11T10:54:12.555Z,18.10
2023-02-11T10:56:52.882Z,19.13
2023-02-11T10:59:34.710Z,17.85
2023-02-11T11:02:13.860Z,19.83
2023-02-11T11:04:45.378Z,18.27
2023-02-11T11:07:15.203Z,18.00
2023-02-11T11:09:47.198Z,16.63
2023-02-11T11:12:35.266Z,16.52
2023-02-11T11:15:11.444Z,16.77
2023-02-11T11:17:38.735Z,16.23
2023-02-11T11:20:33.695Z,18.67
2023-02-11T11:23:22.690Z,15.93
2023-02-11T11:26:13.098Z,15.43
2023-02-11T11:28:54.601Z,14.23
2023-02-11T11:31:26.012Z,15.18
2023-02-11T11:33:55.985Z,16.38
2023-02-11T11:36:39.117Z,14.85
2023-02-11T11:39:23.150Z,16.38
2023-02-11T11:41:55.940Z,15.80
2023-02-11T11:44:32.776Z,15.13
2023-02-11T11:47:11.439Z,14.70
2023-02-11T11:49:57.009Z,15.00
2023-02-11T11:52:35.449Z,13.90
2023-02-11T11:55:15.892Z,14.45
2023-02-11T11:57:42.572Z,15.02
2023-02-11T12:00:21.168Z,13.70
2023-02-11T12:03:19.165Z,14.75
2023-02-11T12:06:00.560Z,14.77
2023-02-11T12:08:59.067Z,10.43
2023-02-11T12:11:34.759Z,13.23
2023-02-11T12:14:06.383Z,14.02
2023-02-11T12:16:55.217Z,14.65
2023-02-11T12:19:21.934Z,14.82
2023-02-11T12:22:01.984Z,15.48
2023-02-11T12:27:29.792Z,15.20
2023-02-11T12:30:17.756Z,13.45
2023-02-11T12:33:31.579Z,12.75
2023-02-11T12:36:39.624Z,13.43
2023-02-11T12:39:27.120Z,12.70
2023-02-11T12:42:44.598Z,13.00
2023-02-11T12:45:11.835Z,13.73
2023-02-11T12:47:50.225Z,12.90
2023-02-11T12:50:41.500Z,13.55
2023-02-11T12:53:22.585Z,12.77
2023-02-11T12:56:31.314Z,11.93
2023-02-11T12:59:01.877Z,12.27
2023-02-11T13:01:35.845Z,11.88
2023-02-11T13:04:12.650Z,12.38
2023-02-11T13:06:44.501Z,10.38
2023-02-11T13:09:21.123Z,10.90
2023-02-11T13:11:54.775Z,12.00
2023-02-11T13:14:28.399Z,10.25
2023-02-11T13:16:56.942Z,11.68
2023-02-11T13:19:29.352Z,9.05
2023-02-11T13:22:05.077Z,10.90
2023-02-11T13:25:03.689Z,11.25
2023-02-11T13:28:16.932Z,9.48
2023-02-11T13:30:52.061Z,10.60
2023-02-11T13:33:35.510Z,10.93
2023-02-11T13:36:09.435Z,11.05
2023-02-11T13:38:37.460Z,10.90
2023-02-11T13:41:31.050Z,10.60
2023-02-11T13:44:16.157Z,10.85
2023-02-11T13:47:05.793Z,8.93
2023-02-11T13:52:27.192Z,10.23
2023-02-11T13:54:56.799Z,11.68
2023-02-11T13:57:32.793Z,10.85
2023-02-11T14:00:21.279Z,10.52
2023-02-11T14:03:29.591Z,10.15
2023-02-11T14:06:27.434Z,9.98
2023-02-11T14:09:09.363Z,10.07
2023-02-11T14:11:51.888Z,11.02
2023-02-11T14:14:27.736Z,8.73
2023-02-11T14:17:03.483Z,10.13
2023-02-11T14:19:37.164Z,8.77
2023-02-11T14:22:04.464Z,10.07
2023-02-11T14:24:34.833Z,10.07
2023-02-11T14:27:36.036Z,9.88
2023-02-11T14:30:35.278Z,8.85
2023-02-11T14:33:07.853Z,9.20
2023-02-11T14:36:08.758Z,9.48
2023-02-11T14:39:00.498Z,7.97
2023-02-11T14:41:34.131Z,9.18
2023-02-11T14:44:07.491Z,8.95
2023-02-11T14:46:35.008Z,8.27
2023-02-11T14:49:05.181Z,12.07
2023-02-11T14:51:36.511Z,13.80
2023-02-11T14:54:17.269Z,11.80
2023-02-11T14:56:44.722Z,10.45
2023-02-11T14:59:23.750Z,9.23
2023-02-11T15:01:54.367Z,8.55
2023-02-11T15:04:27.549Z,8.20
2023-02-11T15:06:55.695Z,10.80
2023-02-11T15:09:32.503Z,13.57
2023-02-11T15:11:59.573Z,11.18
2023-02-11T15:14:30.008Z,8.93
2023-02-11T15:17:01.031Z,8.15
2023-02-11T15:19:34.378Z,7.93
2023-02-11T15:22:05.070Z,7.03
2023-02-11T15:24:35.338Z,7.00
2023-02-11T15:27:08.541Z,6.82
2023-02-11T15:29:38.547Z,7.57
2023-02-11T15:32:07.968Z,7.93
2023-02-11T15:34:35.181Z,9.05
2023-02-11T15:37:05.340Z,9.00
2023-02-11T15:39:42.666Z,8.55
2023-02-11T15:42:26.121Z,8.63
2023-02-11T15:45:14.092Z,8.73
2023-02-11T15:47:50.560Z,8.82
2023-02-11T15:50:23.303Z,8.75
2023-02-11T15:52:50.775Z,9.48
2023-02-11T15:55:19.314Z,9.57
2023-02-11T15:57:52.901Z,8.82
2023-02-11T16:00:22.730Z,9.05
2023-02-11T16:02:59.534Z,9.43
2023-02-11T16:05:32.506Z,9.38
2023-02-11T16:08:01.232Z,9.02
2023-02-11T16:10:36.276Z,10.18
2023-02-11T16:13:09.566Z,9.57
2023-02-11T16:15:46.849Z,9.27
2023-02-11T16:18:52.022Z,10.70
2023-02-11T16:21:45.213Z,10.23
2023-02-11T16:24:27.958Z,10.25
2023-02-11T16:27:00.767Z,10.65
2023-02-11T16:29:30.575Z,10.23
2023-02-11T16:32:13.811Z,11.65
2023-02-11T16:34:40.528Z,11.75
2023-02-11T16:37:10.288Z,11.68
2023-02-11T16:39:37.230Z,11.70
2023-02-11T16:42:07.599Z,13.23
2023-02-11T16:44:34.829Z,15.23
2023-02-11T16:47:06.050Z,22.55
2023-02-11T16:49:42.259Z,23.50
2023-02-11T16:52:13.847Z,15.68
2023-02-11T16:54:40.487Z,12.93
2023-02-11T16:57:16.892Z,13.30
2023-02-11T16:59:44.018Z,13.57
2023-02-11T17:02:23.553Z,11.60
2023-02-11T17:04:52.212Z,14.95
2023-02-11T17:07:19.640Z,14.43
2023-02-11T17:09:48.201Z,13.10
2023-02-11T17:12:15.170Z,14.45
2023-02-11T17:14:41.855Z,14.43
2023-02-11T17:17:10.342Z,13.73
2023-02-11T17:19:39.743Z,13.07
2023-02-11T17:22:07.007Z,15.00
2023-02-11T17:24:33.870Z,14.35
2023-02-11T17:27:00.637Z,13.93
2023-02-11T17:29:27.394Z,15.32
2023-02-11T17:31:54.597Z,14.57
2023-02-11T17:34:22.627Z,15.45
2023-02-11T17:36:49.768Z,16.25
2023-02-11T17:39:16.609Z,15.15
2023-02-11T17:41:43.483Z,14.90
2023-02-11T17:44:12.349Z,16.17
2023-02-11T17:46:39.255Z,16.80
2023-02-11T17:49:06.345Z,12.63
2023-02-11T17:55:27.035Z,14.35
2023-02-11T17:57:53.790Z,16.73
2023-02-11T18:00:21.028Z,15.90
2023-02-11T18:02:47.751Z,15.43
2023-02-11T18:05:14.693Z,15.85
2023-02-11T18:07:41.899Z,15.48
2023-02-11T18:10:09.167Z,16.33
2023-02-11T18:12:35.891Z,15.88
2023-02-11T18:15:02.604Z,15.90
2023-02-11T18:17:29.390Z,18.67
2023-02-11T18:19:57.304Z,19.10
2023-02-11T18:22:25.071Z,16.05
2023-02-11T18:25:55.093Z,16.52
2023-02-11T18:28:22.226Z,14.85
2023-02-11T18:30:48.900Z,16.33
2023-02-11T18:33:24.504Z,15.75
2023-02-11T18:36:07.104Z,16.45
2023-02-11T18:39:06.553Z,17.35
2023-02-11T18:41:36.120Z,17.15
2023-02-11T18:44:04.594Z,17.02
2023-02-11T18:46:34.137Z,17.20
2023-02-11T18:49:03.837Z,16.60
2023-02-11T18:51:33.405Z,17.27
2023-02-11T18:54:03.411Z,16.70
2023-02-11T18:56:30.216Z,16.40
2023-02-11T18:59:06.402Z,15.82
2023-02-11T19:01:34.635Z,17.17
2023-02-11T19:04:04.631Z,17.42
2023-02-11T19:06:38.588Z,17.23
2023-02-11T19:09:09.826Z,18.67
2023-02-11T19:11:54.910Z,18.48
2023-02-11T19:14:27.501Z,18.45
2023-02-11T19:16:58.939Z,18.98
2023-02-11T19:19:30.372Z,17.75
2023-02-11T19:21:58.601Z,17.98
2023-02-11T19:24:26.251Z,17.52
2023-02-11T19:26:55.746Z,18.02
2023-02-11T19:29:22.884Z,18.50
2023-02-11T19:31:49.968Z,18.00
2023-02-11T19:34:21.945Z,17.33
2023-02-11T19:36:49.874Z,17.63
2023-02-11T19:39:16.879Z,19.23
2023-02-11T19:41:43.621Z,15.65
2023-02-11T19:44:10.682Z,18.25
2023-02-11T19:46:40.807Z,16.98
2023-02-11T19:49:08.361Z,18.48
2023-02-11T19:51:37.310Z,18.73
2023-02-11T19:54:04.195Z,18.38
2023-02-11T19:56:31.169Z,19.17
2023-02-11T19:58:58.197Z,18.70
2023-02-11T20:01:25.834Z,21.02
2023-02-11T20:03:54.772Z,17.38
2023-02-11T20:06:26.291Z,17.65
2023-02-11T20:08:58.205Z,17.58
2023-02-11T20:11:25.573Z,17.13
2023-02-11T20:13:52.266Z,18.00
2023-02-11T20:16:33.949Z,16.50
2023-02-11T20:19:14.887Z,16.30
2023-02-11T20:21:41.426Z,16.67
2023-02-11T20:24:08.032Z,16.67
2023-02-11T20:26:34.952Z,18.20
2023-02-11T20:29:02.322Z,22.95
2023-02-11T20:31:33.092Z,15.45
2023-02-11T20:34:01.377Z,14.27
2023-02-11T20:36:31.981Z,14.15
2023-02-11T20:39:00.328Z,15.32
2023-02-11T20:41:30.883Z,14.75
2023-02-11T20:43:59.129Z,12.35
2023-02-11T20:46:28.646Z,15.23
2023-02-11T20:48:56.543Z,14.93
2023-02-11T20:51:34.554Z,13.15
2023-02-11T20:54:01.551Z,15.25
2023-02-11T20:56:33.540Z,15.00
2023-02-11T20:59:02.207Z,14.57
2023-02-11T21:01:40.738Z,15.40
2023-02-11T21:04:13.608Z,16.33
2023-02-11T21:06:43.855Z,15.32
2023-02-11T21:09:14.486Z,17.05
2023-02-11T21:11:42.655Z,18.65
2023-02-11T21:14:10.342Z,19.08
2023-02-11T21:16:37.136Z,20.02
2023-02-11T21:19:04.240Z,18.77
2023-02-11T21:21:31.226Z,20.17
2023-02-11T21:23:58.668Z,22.00
2023-02-11T21:26:25.653Z,20.85
2023-02-11T21:28:52.397Z,22.25
2023-02-11T21:31:24.761Z,20.15
2023-02-11T21:33:51.745Z,19.63
2023-02-11T21:36:18.611Z,21.02
2023-02-11T21:38:45.307Z,21.55
2023-02-11T21:41:12.357Z,20.80
2023-02-11T21:43:39.045Z,21.85
2023-02-11T21:46:11.082Z,19.38
2023-02-11T21:48:38.328Z,20.35
2023-02-11T21:51:07.418Z,21.40
2023-02-11T21:53:34.699Z,21.23
2023-02-11T21:56:06.718Z,19.77
2023-02-11T21:58:34.151Z,20.13
2023-02-11T22:01:00.843Z,21.58
2023-02-11T22:03:27.831Z,22.25
2023-02-11T22:05:54.872Z,21.95
2023-02-11T22:08:21.694Z,19.75
2023-02-11T22:10:48.309Z,19.80
2023-02-11T22:13:15.173Z,20.98
2023-02-11T22:15:41.906Z,19.92
2023-02-11T22:18:08.516Z,21.02
2023-02-11T22:20:35.147Z,20.67
2023-02-11T22:23:01.710Z,18.52
2023-02-11T22:25:28.405Z,22.08
2023-02-11T22:27:54.981Z,19.35
2023-02-11T22:30:21.697Z,19.60
2023-02-11T22:32:48.742Z,18.67
2023-02-11T22:35:15.477Z,19.20
2023-02-11T22:37:42.173Z,18.38
2023-02-11T22:40:09.227Z,18.48
2023-02-11T22:42:35.943Z,18.35
2023-02-11T22:45:03.186Z,19.05
2023-02-11T22:47:29.804Z,19.20
2023-02-11T22:49:56.575Z,19.25
2023-02-11T22:52:23.730Z,17.95
2023-02-11T22:54:51.367Z,18.27
2023-02-11T22:57:17.935Z,18.50
2023-02-11T22:59:44.784Z,18.58
2023-02-11T23:02:11.490Z,19.05
2023-02-11T23:04:39.244Z,19.02
2023-02-11T23:07:06.160Z,19.20
2023-02-11T23:09:32.750Z,18.35
2023-02-11T23:12:00.277Z,19.02
2023-02-11T23:14:26.976Z,19.80
2023-02-11T23:16:53.841Z,19.77
2023-02-11T23:19:26.480Z,18.58
2023-02-11T23:21:53.729Z,18.90
2023-02-11T23:24:20.512Z,19.20
2023-02-11T23:26:47.198Z,18.60
2023-02-11T23:29:17.082Z,20.40
2023-02-11T23:31:46.446Z,18.55
2023-02-11T23:34:18.419Z,18.77
2023-02-11T23:36:45.445Z,18.08
2023-02-11T23:39:16.442Z,18.02
2023-02-11T23:41:44.535Z,16.83
2023-02-11T23:44:11.288Z,16.77
2023-02-11T23:46:38.086Z,16.50
2023-02-11T23:49:04.774Z,16.95
2023-02-11T23:51:31.574Z,16.88
2023-02-11T23:53:58.175Z,17.52
2023-02-11T23:56:28.426Z,16.70
2023-02-11T23:58:57.448Z,15.88
